KOZR/OZR METAR and TAF weather

Enter ICAO airport designator
Station Type Date Time Source
KOZR METAR 2020/04/05 20:37 UTC NOAA

KOZR 052037Z AUTO 14003KT 2 3/4SM HZ BKN065 27/12 A2997 RMK AO2 VIS 1 1/2V4 SLP149


Station Type Date Time Source
KOZR Decoded METAR 2020/04/05 20:37 UTC NOAA

Cairns Army Air Field / Ozark, AL, United States (KOZR) 31-17N 085-43W
Apr 05, 2020 - 04:37 PM EDT / 2020.04.05 2037 UTC
Wind: from the SE (140 degrees) at 3 MPH (3 KT):0
Visibility: 2 3/4 mile(s):0
Sky conditions: mostly cloudy
Weather: haze
Temperature: 80 F (27 C)
Dew Point: 53 F (12 C)
Relative Humidity: 39%
Pressure (altimeter): 29.97 in. Hg (1014 hPa)
ob: KOZR 052037Z AUTO 14003KT 2 3/4SM HZ BKN065 27/12 A2997 RMK AO2 VIS 1 1/2V4 SLP149
cycle: 20

Station Type Date Time Source
KOZR TAF 2020/04/04 02:24 UTC NOAA

TAF
AMD KOZR 040215Z 0402/0506 VRB06KT 9999 FEW095 QNH2995INS TX24/0421Z TN13/0411Z LAST NO
AMDS AFT 0406 NEXT 0606

Example: see airport list